createdAt,value
2023-03-24T00:10:05.035Z,11.10
2023-03-24T00:20:14.919Z,13.00
2023-03-24T00:30:22.167Z,13.10
2023-03-24T00:40:28.391Z,10.10
2023-03-24T00:50:34.938Z,10.30
2023-03-24T01:00:42.586Z,8.40
2023-03-24T01:10:53.324Z,10.80
2023-03-24T01:20:59.188Z,9.30
2023-03-24T01:31:06.061Z,15.30
2023-03-24T01:41:11.780Z,15.60
2023-03-24T01:51:22.464Z,15.10
2023-03-24T02:01:31.130Z,14.90
2023-03-24T02:11:39.365Z,14.30
2023-03-24T02:22:21.025Z,17.20
2023-03-24T02:33:09.962Z,21.20
2023-03-24T02:43:29.014Z,13.70
2023-03-24T02:53:39.881Z,13.60
2023-03-24T03:03:51.775Z,13.00
2023-03-24T03:14:03.387Z,13.10
2023-03-24T03:24:12.636Z,11.70
2023-03-24T03:34:29.384Z,13.80
2023-03-24T03:44:35.279Z,14.10
2023-03-24T03:54:42.574Z,10.20
2023-03-24T04:05:14.180Z,9.50
2023-03-24T04:15:35.715Z,10.30
2023-03-24T04:25:50.884Z,9.80
2023-03-24T04:36:06.577Z,12.40
2023-03-24T04:46:17.704Z,11.90
2023-03-24T04:56:40.791Z,11.40
2023-03-24T05:06:49.755Z,9.30
2023-03-24T05:16:55.777Z,11.60
2023-03-24T05:27:01.805Z,10.10
2023-03-24T05:37:12.051Z,9.20
2023-03-24T05:47:20.196Z,8.40
2023-03-24T05:57:25.884Z,9.30
2023-03-24T06:07:32.272Z,5.60
2023-03-24T06:17:38.583Z,5.80
2023-03-24T06:27:47.214Z,7.50
2023-03-24T06:37:52.968Z,6.50
2023-03-24T06:47:58.778Z,6.20
2023-03-24T06:58:04.480Z,4.70
2023-03-24T07:18:21.564Z,7.40
2023-03-24T07:28:27.545Z,6.50
2023-03-24T07:38:34.259Z,6.50
2023-03-24T07:48:40.036Z,5.20
2023-03-24T07:58:46.212Z,6.70
2023-03-24T08:08:51.924Z,4.70
2023-03-24T08:18:59.309Z,3.30
2023-03-24T08:29:05.240Z,4.90
2023-03-24T08:39:10.850Z,3.90
2023-03-24T08:49:16.452Z,5.30
2023-03-24T08:59:22.104Z,3.70
2023-03-24T09:09:29.237Z,10.90
2023-03-24T09:19:35.344Z,8.00
2023-03-24T09:29:41.092Z,3.70
2023-03-24T09:39:46.798Z,4.30
2023-03-24T09:49:55.057Z,3.50
2023-03-24T10:00:00.685Z,3.30
2023-03-24T10:10:18.309Z,4.00
2023-03-24T10:20:34.464Z,3.90
2023-03-24T10:30:46.767Z,3.30
2023-03-24T10:40:55.561Z,4.30
2023-03-24T10:51:01.799Z,5.00
2023-03-24T11:01:22.104Z,3.40
2023-03-24T11:11:34.132Z,4.00
2023-03-24T11:21:40.373Z,9.50
2023-03-24T11:31:58.943Z,3.80
2023-03-24T11:42:18.567Z,2.30
2023-03-24T11:52:29.935Z,2.70
2023-03-24T12:02:49.479Z,3.70
2023-03-24T12:13:04.458Z,2.60
2023-03-24T12:23:19.614Z,3.60
2023-03-24T12:33:40.973Z,2.90
2023-03-24T12:43:56.198Z,2.70
2023-03-24T12:54:13.316Z,3.80
2023-03-24T13:04:23.883Z,2.50
2023-03-24T13:14:35.396Z,6.20
2023-03-24T13:24:41.676Z,8.10
2023-03-24T13:34:54.646Z,6.20
2023-03-24T13:45:03.339Z,2.30
2023-03-24T13:55:16.194Z,5.50
2023-03-24T14:06:01.122Z,2.80
2023-03-24T14:16:46.179Z,3.20
2023-03-24T14:26:53.395Z,3.10
2023-03-24T14:37:06.471Z,2.50
2023-03-24T14:47:12.971Z,6.00
2023-03-24T14:57:23.193Z,3.20
2023-03-24T15:07:29.175Z,3.90
2023-03-24T15:17:35.367Z,1.60
2023-03-24T15:27:41.212Z,3.00
2023-03-24T15:37:51.108Z,1.60
2023-03-24T15:47:58.359Z,2.30
2023-03-24T15:58:20.597Z,3.80
2023-03-24T16:08:35.768Z,5.40
2023-03-24T16:18:43.758Z,3.30
2023-03-24T16:38:54.629Z,4.70
2023-03-24T16:49:01.500Z,12.10
2023-03-24T16:59:09.059Z,27.40
2023-03-24T17:09:14.819Z,14.90
2023-03-24T17:19:28.581Z,9.30
2023-03-24T17:29:34.570Z,9.20
2023-03-24T17:39:41.190Z,10.00
2023-03-24T17:49:47.606Z,10.50
2023-03-24T17:59:53.340Z,23.80
2023-03-24T18:09:59.411Z,16.40
2023-03-24T18:20:10.595Z,17.60
2023-03-24T18:30:17.800Z,17.00
2023-03-24T18:40:23.807Z,17.90
2023-03-24T18:50:29.588Z,24.70
2023-03-24T19:00:35.707Z,26.00
2023-03-24T19:10:42.849Z,35.90
2023-03-24T19:20:48.645Z,34.00
2023-03-24T19:30:54.440Z,36.10
2023-03-24T19:41:05.042Z,17.10
2023-03-24T19:51:11.018Z,11.60
2023-03-24T20:01:16.894Z,5.80
2023-03-24T20:11:22.823Z,4.60
2023-03-24T20:21:29.232Z,3.20
2023-03-24T20:31:36.768Z,1.80
2023-03-24T20:41:42.829Z,3.10
2023-03-24T20:51:48.966Z,2.40
2023-03-24T21:01:54.694Z,5.40
2023-03-24T21:12:01.739Z,10.50
2023-03-24T21:22:14.736Z,11.90
2023-03-24T21:32:20.889Z,6.20
2023-03-24T21:42:26.994Z,4.90
2023-03-24T21:52:36.457Z,8.70
2023-03-24T22:02:45.713Z,9.30
2023-03-24T22:12:52.844Z,9.80
2023-03-24T22:23:00.266Z,11.90
2023-03-24T22:33:06.083Z,8.60
2023-03-24T22:43:12.041Z,9.60
2023-03-24T22:53:18.146Z,13.20
2023-03-24T23:03:24.358Z,10.60
2023-03-24T23:13:30.827Z,9.80
2023-03-24T23:23:37.519Z,9.50
2023-03-24T23:33:44.351Z,11.60
2023-03-24T23:43:52.436Z,13.00
2023-03-24T23:53:58.422Z,9.70
